Rio Grande, Brazil
Current Conditions -  °F | °C
As of 8:00 PM on Tuesday 21 Oct 2014 (Local Time) from SBPK Reporting Station
Clear Clear  
Wind Chill: 63°   Ceiling: Unl
Heat Index: 63°   Visibility: 6mi
Dew Point: 52°   Wind: 8mph
Humidity: 68%   Direction: 80°E
Pressure: 30.15"   Gusts: NA
Location:  32.05°S, 52.11°W
Report Text: SBPK 212200Z 08007KT CAVOK 17/11 Q1021
Loading
Personal Weather Stations






























Interactive Weather Map
Tropical Storm Tracking
New forecast layout! Learn more

10-Day Weather Forecast

Advertisements
Track Severe Weather on mobile